MDT,Max TemperatureF,Mean TemperatureF,Min TemperatureF,Max Dew PointF,MeanDew PointF,Min DewpointF,Max Humidity, Mean Humidity, Min Humidity, Max Sea Level PressureIn, Mean Sea Level PressureIn, Min Sea Level PressureIn, Max VisibilityMiles, Mean VisibilityMiles, Min VisibilityMiles, Max Wind SpeedMPH, Mean Wind SpeedMPH, Max Gust SpeedMPH,PrecipitationIn, CloudCover, Events, WindDirDegrees
2013-3-1,60,47,34,19,13,5,35,26,16,30.38,30.29,30.19,10,10,10,22,11,28,0.00,0,,341
2013-3-2,64,50,36,21,20,18,52,34,16,30.40,30.27,30.12,10,10,10,10,4,15,0.00,2,,330
2013-3-3,68,52,35,22,15,-3,52,30,7,30.16,29.95,29.80,10,10,10,28,9,39,0.00,6,,192
2013-3-4,64,56,47,21,18,15,29,23,16,30.01,29.82,29.69,10,10,10,32,13,40,0.00,5,,271
2013-3-5,60,46,32,21,16,8,63,38,12,30.30,30.17,30.08,10,10,10,13,5,16,0.00,3,,74
2013-3-6,66,55,43,23,21,18,37,27,16,30.18,29.99,29.86,10,10,10,17,7,21,0.00,5,,168
2013-3-7,69,54,38,20,17,13,44,28,12,30.09,29.90,29.80,10,10,10,18,7,23,0.00,1,,162
2013-3-8,62,50,38,43,27,12,70,45,20,29.98,29.80,29.70,10,10,5,30,11,39,0.16,6,Rain-Thunderstorm,182
2013-3-9,46,40,33,33,22,15,70,49,28,29.97,29.83,29.74,10,10,10,26,11,35,T,6,Rain,295
2013-3-10,52,41,30,27,22,11,85,54,23,30.17,30.07,29.95,10,10,10,21,7,29,T,5,Snow,335
2013-3-11,63,48,32,19,15,5,51,31,10,30.20,30.07,29.93,10,10,10,22,8,32,0.00,1,,328
2013-3-12,66,51,35,23,20,18,48,32,16,30.19,30.11,30.03,10,10,10,16,5,21,0.00,1,,58
2013-3-13,70,53,35,25,21,15,54,34,14,30.36,30.22,30.12,10,10,10,16,6,22,0.00,1,,348
2013-3-14,74,57,39,21,17,12,41,26,10,30.40,30.18,30.10,10,10,10,13,5,15,0.00,0,,331
2013-3-15,77,59,41,17,13,7,36,21,6,30.14,29.99,29.83,10,10,10,12,4,14,0.00,4,,195
2013-3-16,73,60,46,34,20,12,46,29,12,29.99,29.78,29.65,10,10,10,32,11,38,0.00,5,,189
2013-3-17,70,56,42,37,19,-12,62,33,4,29.91,29.72,29.59,10,10,9,32,11,40,0.01,3,Rain,268
2013-3-18,68,53,37,8,4,-1,27,17,7,30.03,29.86,29.79,10,10,10,24,7,32,0.00,1,,317
2013-3-19,64,53,42,15,9,2,28,20,12,30.14,29.97,29.88,10,10,10,23,6,31,0.00,5,,318
2013-3-20,62,49,36,21,17,14,37,27,16,30.21,30.03,29.79,10,10,10,26,7,32,0.00,5,,316
2013-3-21,72,61,49,30,16,-3,36,21,5,29.78,29.63,29.49,10,10,10,36,14,46,0.00,5,,301
2013-3-22,66,51,36,26,11,5,39,25,11,29.77,29.65,29.53,10,10,10,29,9,36,0.00,4,,239
2013-3-23,51,42,33,27,-1,-17,42,25,8,30.08,29.82,29.61,10,10,7,40,17,51,0.00,1,,309
2013-3-24,54,39,23,-1,-8,-14,21,15,9,30.16,30.04,29.88,10,10,10,25,8,31,0.00,2,,334
2013-3-25,55,41,26,8,5,-1,42,28,14,30.22,30.12,30.04,10,10,10,24,7,30,0.00,2,,19
2013-3-26,66,49,32,11,8,6,35,23,11,30.17,30.04,29.88,10,10,10,25,12,40,0.00,4,,176
2013-3-27,70,57,44,12,9,5,27,18,9,30.00,29.93,29.86,10,10,10,17,7,22,0.00,5,,198
2013-3-28,72,59,45,21,13,7,24,17,9,30.01,29.96,29.89,10,10,10,30,6,37,0.00,6,,186
2013-3-29,73,60,46,22,17,12,32,21,10,30.13,30.00,29.94,10,10,10,21,6,26,0.00,4,,198
2013-3-30,72,58,43,24,18,14,31,21,11,30.08,29.98,29.88,10,10,10,21,5,29,0.00,5,,282
2013-3-31,71,61,50,33,26,22,50,34,17,30.00,29.92,29.83,10,10,10,24,7,30,0.00,3,,144